You are not logged in, Click here to log in
麥克坦-宿霧國際機場CEB / RPVM 菲律賓米沙鄢群島
ICAO: RPVM Country: 菲律賓米沙鄢群島
Latitude: 10.3133 Longitude: 123.983
Total Arrivals: 8 Total Departures: 9
Latest Arrival: BR281 (RCTP-RPVM)Lun. Wang Latest Departure: FS71 (RPVM-RKPK)ALAN. LIU
Scenery:
METAR : RPVM 080300Z 04015KT 9999 SCT020TCU SCT300 31/25 Q1011 RMK A2985 TCU SW-NW

麥克坦-宿霧國際機場CEB